Observations for NEW YORK JF KENNEDY, NY (JFK)

KJFK 241951Z 13015KT 10SM FEW050 FEW140 BKN200 BKN250 14/07 A3029 RMK AO2 SLP256 T01440072  
KJFK 241851Z 15018G24KT 10SM FEW050 FEW140 SCT200 BKN250 16/07 A3032 RMK AO2 SLP268 T01560072   
KJFK 241751Z 14017G22KT 10SM SCT050 SCT140 BKN260 16/07 A3036 RMK AO2 SLP279 T01610067 10161 20089 58017
KJFK 241651Z 15016KT 10SM SCT049 BKN260 16/04 A3038 RMK AO2 SLP286 T01610044
KJFK 241551Z 16013KT 10SM SCT049 SCT140 BKN260 16/06 A3040 RMK AO2 SLP292 T01560056 
KJFK 241451Z 15013KT 10SM FEW060 FEW140 BKN260 14/07 A3041 RMK AO2 SLP296 T01440067 58006   
KJFK 241351Z 15010KT 10SM FEW120 FEW150 BKN260 13/06 A3042 RMK AO2 SLP301 T01330061 
KJFK 241251Z 15007KT 10SM FEW140 FEW190 BKN260 12/07 A3042 RMK AO2 SLP301 T01170067 
KJFK 241151Z 09004KT 10SM FEW190 BKN260 09/08 A3043 RMK AO2 SLP302 T00890078 10089 20050 53005  
KJFK 241051Z 06005KT 10SM MIFG FEW190 BKN260 06/06 A3041 RMK AO2 SLP298 MIFG E-S T00610061  
KJFK 240951Z 08003KT 10SM BKN250 06/06 A3042 RMK AO2 SLP300 T00560056   
KJFK 240851Z 11006KT 10SM BKN250 06/06 A3041 RMK AO2 SLP297 T00610056 56007 
KJFK 240751Z 12003KT 10SM BKN250 06/06 A3042 RMK AO2 SLP299 T00610056   
KJFK 240651Z 08003KT 10SM BKN250 05/05 A3041 RMK AO2 SLP298 T00500050   
KJFK 240551Z 00000KT 9SM SCT250 07/06 A3043 RMK AO2 SLP304 T00670061 10089 20061 56009  
KJFK 240451Z 00000KT 10SM BKN250 07/06 A3044 RMK AO2 SLP306 T00720061 401610039 
KJFK 240351Z 14003KT 10SM BKN250 08/06 A3044 RMK AO2 SLP309 T00780061   
KJFK 240251Z 15005KT 10SM BKN250 08/06 A3046 RMK AO2 SLP314 T00780061 50003 
KJFK 240151Z 14005KT 10SM BKN250 08/06 A3046 RMK AO2 SLP315 T00780061   
KJFK 240051Z 12006KT 10SM BKN250 08/05 A3046 RMK AO2 SLP313 T00830050   
KJFK 232351Z 13006KT 10SM SCT250 09/06 A3045 RMK AO2 SLP311 T00890056 10150 20089 55004 
KJFK 232251Z 14007KT 10SM SCT250 11/05 A3045 RMK AO2 SLP309 T01060050   
KJFK 232151Z 15009KT 10SM SCT250 11/04 A3045 RMK AO2 SLP311 T01060044   
KJFK 232051Z 14013KT 10SM FEW250 12/02 A3046 RMK AO2 SLP315 T01220022 56004 
KJFK 231951Z 12012KT 10SM FEW250 13/02 A3046 RMK AO2 SLP316 T01330017